GVAC/SID METAR and TAF weather

Enter ICAO airport designator
Station Type Date Time Source
GVAC METAR 2019/08/19 08:00 UTC NOAA

GVAC 190800Z 08004KT 9999 FEW013 25/23 Q1013 NOSIG


Station Type Date Time Source
GVAC Decoded METAR 2019/08/19 08:00 UTC NOAA

Station name not available
Aug 19, 2019 - 04:00 AM EDT / 2019.08.19 0800 UTC
Wind: from the E (080 degrees) at 5 MPH (4 KT):0
Visibility: greater than 7 mile(s):0
Sky conditions: mostly clear
Temperature: 77 F (25 C)
Dew Point: 73 F (23 C)
Relative Humidity: 88%
Pressure (altimeter): 29.91 in. Hg (1013 hPa)
ob: GVAC 190800Z 08004KT 9999 FEW013 25/23 Q1013 NOSIG
cycle: 8

Station Type Date Time Source
GVAC TAF 2019/08/19 06:58 UTC NOAA

TAF GVAC 190500Z 1906/2012 06005KT 9999 SCT013
TEMPO 1912/1920 34010KT

Example: see airport list